Terminal Aerodrome Forecast
Issued by NWS Chicago, IL

Home | Current Version | Previous Version | Text Only | Print | Product List | Glossary On
Versions: 1 2 3 4 5 6 7 8 9 10 11 12 13 14 15 16 17 18 19 20 21 22 23 24 25 26 27 28 29 30 31 32 33
000
FTUS43 KLOT 250647 AAA
TAFRFD
TAF AMD
KRFD 250647Z 2507/2606 18012G22KT 6SM -SHRA BR BKN040 OVC080
      TEMPO 2507/2510 3SM -RA BR SCT008 BKN035 OVC050
     FM251000 22023G34KT P6SM BKN025 BKN040
     FM251500 23020G30KT P6SM SCT030
     FM252000 23018G28KT P6SM SCT040=

USA.gov is the U.S. government's official web portal to all federal, state and local government web resources and services.